sensor_id;sensor_type;location;lat;lon;timestamp;pressure;altitude;pressure_sealevel;temperature;humidity
5679;BME280;2862;52.560;13.566;2022-12-07T00:00:23;100385.69;;;3.15;100.00
5679;BME280;2862;52.560;13.566;2022-12-07T00:10:28;100386.59;;;3.14;100.00
5679;BME280;2862;52.560;13.566;2022-12-07T00:20:31;100365.94;;;2.91;100.00
5679;BME280;2862;52.560;13.566;2022-12-07T00:30:35;100376.25;;;2.96;100.00
5679;BME280;2862;52.560;13.566;2022-12-07T00:40:38;100366.50;;;3.12;100.00
5679;BME280;2862;52.560;13.566;2022-12-07T00:50:43;100364.84;;;2.95;100.00
5679;BME280;2862;52.560;13.566;2022-12-07T01:00:47;100354.53;;;2.90;100.00
5679;BME280;2862;52.560;13.566;2022-12-07T01:10:57;100340.66;;;2.87;100.00
5679;BME280;2862;52.560;13.566;2022-12-07T01:21:02;100340.44;;;3.06;100.00
5679;BME280;2862;52.560;13.566;2022-12-07T01:31:09;100334.38;;;2.74;100.00
5679;BME280;2862;52.560;13.566;2022-12-07T01:41:13;100323.16;;;2.70;99.69
5679;BME280;2862;52.560;13.566;2022-12-07T01:51:18;100321.38;;;2.71;99.99
5679;BME280;2862;52.560;13.566;2022-12-07T02:01:21;100306.22;;;2.58;97.49
5679;BME280;2862;52.560;13.566;2022-12-07T02:11:25;100296.56;;;2.73;98.63
5679;BME280;2862;52.560;13.566;2022-12-07T02:21:40;100291.38;;;2.72;95.95
5679;BME280;2862;52.560;13.566;2022-12-07T02:31:53;100288.00;;;2.70;95.65
5679;BME280;2862;52.560;13.566;2022-12-07T02:42:02;100271.25;;;2.39;94.95
5679;BME280;2862;52.560;13.566;2022-12-07T02:52:11;100263.78;;;2.31;94.04
5679;BME280;2862;52.560;13.566;2022-12-07T03:02:20;100246.97;;;2.18;95.78
5679;BME280;2862;52.560;13.566;2022-12-07T03:12:31;100242.53;;;2.19;96.74
5679;BME280;2862;52.560;13.566;2022-12-07T03:22:39;100216.22;;;2.17;97.54
5679;BME280;2862;52.560;13.566;2022-12-07T03:32:49;100201.00;;;2.06;98.75
5679;BME280;2862;52.560;13.566;2022-12-07T03:42:55;100182.66;;;2.05;98.78
5679;BME280;2862;52.560;13.566;2022-12-07T03:53:08;100152.03;;;2.02;100.00
5679;BME280;2862;52.560;13.566;2022-12-07T04:03:14;100138.75;;;2.04;100.00
5679;BME280;2862;52.560;13.566;2022-12-07T04:13:19;100128.56;;;1.98;100.00
5679;BME280;2862;52.560;13.566;2022-12-07T04:23:21;100128.78;;;1.79;100.00
5679;BME280;2862;52.560;13.566;2022-12-07T04:33:26;100121.13;;;1.74;100.00
5679;BME280;2862;52.560;13.566;2022-12-07T04:43:29;100107.25;;;1.71;100.00
5679;BME280;2862;52.560;13.566;2022-12-07T04:53:34;100102.59;;;1.76;100.00
5679;BME280;2862;52.560;13.566;2022-12-07T05:03:37;100095.16;;;1.82;100.00
5679;BME280;2862;52.560;13.566;2022-12-07T05:13:42;100087.75;;;1.89;100.00
5679;BME280;2862;52.560;13.566;2022-12-07T05:23:45;100080.38;;;1.96;100.00
5679;BME280;2862;52.560;13.566;2022-12-07T05:33:50;100073.59;;;2.06;100.00
5679;BME280;2862;52.560;13.566;2022-12-07T05:43:53;100069.59;;;2.15;100.00
5679;BME280;2862;52.560;13.566;2022-12-07T05:53:57;100050.38;;;2.27;100.00
5679;BME280;2862;52.560;13.566;2022-12-07T06:04:00;100041.56;;;2.42;100.00
5679;BME280;2862;52.560;13.566;2022-12-07T06:14:05;100016.59;;;2.48;100.00
5679;BME280;2862;52.560;13.566;2022-12-07T06:24:09;99994.91;;;2.57;100.00
5679;BME280;2862;52.560;13.566;2022-12-07T06:34:16;100001.03;;;2.72;100.00
5679;BME280;2862;52.560;13.566;2022-12-07T06:44:20;100001.56;;;3.05;100.00
5679;BME280;2862;52.560;13.566;2022-12-07T06:54:25;100000.78;;;3.03;100.00
5679;BME280;2862;52.560;13.566;2022-12-07T07:04:30;100000.88;;;3.16;100.00
5679;BME280;2862;52.560;13.566;2022-12-07T07:14:34;99987.19;;;3.09;100.00
5679;BME280;2862;52.560;13.566;2022-12-07T07:24:38;99999.16;;;3.15;100.00
5679;BME280;2862;52.560;13.566;2022-12-07T07:34:42;99993.41;;;3.23;100.00
5679;BME280;2862;52.560;13.566;2022-12-07T07:44:45;99989.97;;;3.20;100.00
5679;BME280;2862;52.560;13.566;2022-12-07T07:54:49;99994.44;;;3.47;100.00
5679;BME280;2862;52.560;13.566;2022-12-07T08:04:52;99986.66;;;3.58;100.00
5679;BME280;2862;52.560;13.566;2022-12-07T08:14:56;99991.47;;;5.17;100.00
5679;BME280;2862;52.560;13.566;2022-12-07T08:24:59;99994.69;;;4.60;98.23
5679;BME280;2862;52.560;13.566;2022-12-07T08:35:04;100006.59;;;3.89;99.70
5679;BME280;2862;52.560;13.566;2022-12-07T08:45:09;100016.09;;;3.79;100.00
5679;BME280;2862;52.560;13.566;2022-12-07T08:55:13;100023.94;;;3.81;100.00
5679;BME280;2862;52.560;13.566;2022-12-07T09:05:17;100018.97;;;3.89;98.32
5679;BME280;2862;52.560;13.566;2022-12-07T09:15:22;100033.50;;;3.96;96.50
5679;BME280;2862;52.560;13.566;2022-12-07T09:25:24;100032.25;;;4.02;95.03
5679;BME280;2862;52.560;13.566;2022-12-07T09:35:29;100046.31;;;4.02;93.01
5679;BME280;2862;52.560;13.566;2022-12-07T09:45:34;100042.41;;;4.33;89.21
5679;BME280;2862;52.560;13.566;2022-12-07T09:55:40;100052.75;;;4.11;85.89
5679;BME280;2862;52.560;13.566;2022-12-07T10:05:46;100062.63;;;4.09;88.73
5679;BME280;2862;52.560;13.566;2022-12-07T10:15:53;100070.28;;;3.86;87.88
5679;BME280;2862;52.560;13.566;2022-12-07T10:25:56;100072.06;;;3.86;87.74
5679;BME280;2862;52.560;13.566;2022-12-07T10:36:15;100062.81;;;4.18;86.72
5679;BME280;2862;52.560;13.566;2022-12-07T10:46:44;100066.50;;;4.03;83.71
5679;BME280;2862;52.560;13.566;2022-12-07T10:57:13;100057.75;;;4.15;83.68
5679;BME280;2862;52.560;13.566;2022-12-07T11:07:38;100060.56;;;3.99;84.84
5679;BME280;2862;52.560;13.566;2022-12-07T11:17:51;100061.97;;;4.18;85.48
5679;BME280;2862;52.560;13.566;2022-12-07T11:28:10;100057.31;;;3.96;86.71
5679;BME280;2862;52.560;13.566;2022-12-07T11:38:23;100051.59;;;4.02;87.50
5679;BME280;2862;52.560;13.566;2022-12-07T11:48:33;100039.41;;;3.99;85.54
5679;BME280;2862;52.560;13.566;2022-12-07T11:58:46;100036.91;;;4.23;86.11
5679;BME280;2862;52.560;13.566;2022-12-07T12:08:55;100030.56;;;4.39;85.56
5679;BME280;2862;52.560;13.566;2022-12-07T12:19:30;100015.22;;;4.44;86.08
5679;BME280;2862;52.560;13.566;2022-12-07T12:29:38;100003.91;;;4.42;85.90
5679;BME280;2862;52.560;13.566;2022-12-07T12:40:12;100012.47;;;4.20;86.32
5679;BME280;2862;52.560;13.566;2022-12-07T12:50:37;100008.03;;;4.33;86.44
5679;BME280;2862;52.560;13.566;2022-12-07T13:00:41;100004.00;;;4.40;86.63
5679;BME280;2862;52.560;13.566;2022-12-07T13:10:46;100009.59;;;4.36;86.93
5679;BME280;2862;52.560;13.566;2022-12-07T13:20:52;100014.56;;;4.28;87.50
5679;BME280;2862;52.560;13.566;2022-12-07T13:31:34;100004.19;;;4.12;88.02
5679;BME280;2862;52.560;13.566;2022-12-07T13:41:41;99999.53;;;4.03;89.49
5679;BME280;2862;52.560;13.566;2022-12-07T13:51:46;99996.25;;;3.99;89.82
5679;BME280;2862;52.560;13.566;2022-12-07T14:01:51;100005.88;;;4.00;89.83
5679;BME280;2862;52.560;13.566;2022-12-07T14:11:57;100016.16;;;4.05;86.83
5679;BME280;2862;52.560;13.566;2022-12-07T14:22:07;100005.69;;;4.03;85.64
5679;BME280;2862;52.560;13.566;2022-12-07T14:32:21;99993.91;;;3.94;85.15
5679;BME280;2862;52.560;13.566;2022-12-07T14:42:28;99971.81;;;4.08;85.96
5679;BME280;2862;52.560;13.566;2022-12-07T14:52:34;99974.78;;;4.04;86.82
5679;BME280;2862;52.560;13.566;2022-12-07T15:03:00;99973.28;;;3.99;89.21
5679;BME280;2862;52.560;13.566;2022-12-07T15:13:06;99967.25;;;3.97;90.95
5679;BME280;2862;52.560;13.566;2022-12-07T15:23:26;99976.34;;;3.81;90.87
5679;BME280;2862;52.560;13.566;2022-12-07T15:33:30;99960.31;;;3.57;90.77
5679;BME280;2862;52.560;13.566;2022-12-07T15:43:33;99976.59;;;3.51;90.85
5679;BME280;2862;52.560;13.566;2022-12-07T15:53:57;99987.31;;;3.35;90.85
5679;BME280;2862;52.560;13.566;2022-12-07T16:04:00;99975.59;;;3.39;90.24
5679;BME280;2862;52.560;13.566;2022-12-07T16:14:04;99958.50;;;3.44;88.84
5679;BME280;2862;52.560;13.566;2022-12-07T16:24:07;100002.22;;;3.36;89.97
5679;BME280;2862;52.560;13.566;2022-12-07T16:34:13;100004.88;;;2.95;92.96
5679;BME280;2862;52.560;13.566;2022-12-07T16:44:15;100002.78;;;3.00;91.73
5679;BME280;2862;52.560;13.566;2022-12-07T16:54:19;99993.47;;;2.94;93.17
5679;BME280;2862;52.560;13.566;2022-12-07T17:04:22;100005.09;;;2.77;93.93
5679;BME280;2862;52.560;13.566;2022-12-07T17:14:27;99995.88;;;2.70;94.59
5679;BME280;2862;52.560;13.566;2022-12-07T17:24:47;99996.06;;;2.53;94.86
5679;BME280;2862;52.560;13.566;2022-12-07T17:34:51;100008.97;;;2.43;95.79
5679;BME280;2862;52.560;13.566;2022-12-07T17:44:54;100005.56;;;2.41;94.91
5679;BME280;2862;52.560;13.566;2022-12-07T17:54:58;100011.56;;;2.29;94.67
5679;BME280;2862;52.560;13.566;2022-12-07T18:05:01;100012.16;;;2.20;95.19
5679;BME280;2862;52.560;13.566;2022-12-07T18:15:06;100015.53;;;2.07;95.91
5679;BME280;2862;52.560;13.566;2022-12-07T18:25:09;100019.47;;;2.15;96.11
5679;BME280;2862;52.560;13.566;2022-12-07T18:35:13;100027.56;;;2.11;97.06
5679;BME280;2862;52.560;13.566;2022-12-07T18:45:16;100016.81;;;2.00;95.48
5679;BME280;2862;52.560;13.566;2022-12-07T18:55:20;100024.22;;;1.94;96.30
5679;BME280;2862;52.560;13.566;2022-12-07T19:05:23;100038.56;;;1.90;97.25
5679;BME280;2862;52.560;13.566;2022-12-07T19:15:28;100039.53;;;1.73;94.87
5679;BME280;2862;52.560;13.566;2022-12-07T19:25:30;100053.78;;;1.84;96.72
5679;BME280;2862;52.560;13.566;2022-12-07T19:35:34;100048.34;;;1.72;94.53
5679;BME280;2862;52.560;13.566;2022-12-07T19:45:37;100042.09;;;1.58;93.50
5679;BME280;2862;52.560;13.566;2022-12-07T19:55:42;100050.41;;;1.67;95.00
5679;BME280;2862;52.560;13.566;2022-12-07T20:05:45;100045.81;;;1.54;93.97
5679;BME280;2862;52.560;13.566;2022-12-07T20:15:49;100051.53;;;1.47;94.22
5679;BME280;2862;52.560;13.566;2022-12-07T20:25:52;100051.63;;;1.45;95.37
5679;BME280;2862;52.560;13.566;2022-12-07T20:35:59;100040.84;;;1.50;96.71
5679;BME280;2862;52.560;13.566;2022-12-07T20:46:02;100040.50;;;1.56;97.62
5679;BME280;2862;52.560;13.566;2022-12-07T20:56:06;100045.69;;;1.42;97.15
5679;BME280;2862;52.560;13.566;2022-12-07T21:06:11;100061.22;;;1.30;97.69
5679;BME280;2862;52.560;13.566;2022-12-07T21:16:18;100056.31;;;1.24;98.13
5679;BME280;2862;52.560;13.566;2022-12-07T21:26:22;100051.38;;;1.34;99.41
5679;BME280;2862;52.560;13.566;2022-12-07T21:36:33;100053.56;;;1.42;98.03
5679;BME280;2862;52.560;13.566;2022-12-07T21:46:36;100056.56;;;1.36;98.11
5679;BME280;2862;52.560;13.566;2022-12-07T21:56:43;100056.19;;;1.57;98.98
5679;BME280;2862;52.560;13.566;2022-12-07T22:06:50;100059.94;;;1.53;98.99
5679;BME280;2862;52.560;13.566;2022-12-07T22:16:59;100061.91;;;1.34;99.74
5679;BME280;2862;52.560;13.566;2022-12-07T22:27:06;100066.84;;;1.40;100.00
5679;BME280;2862;52.560;13.566;2022-12-07T22:37:11;100065.91;;;1.41;100.00
5679;BME280;2862;52.560;13.566;2022-12-07T22:47:18;100057.91;;;1.43;100.00
5679;BME280;2862;52.560;13.566;2022-12-07T22:57:22;100050.94;;;1.57;100.00
5679;BME280;2862;52.560;13.566;2022-12-07T23:07:26;100049.75;;;1.63;99.69
5679;BME280;2862;52.560;13.566;2022-12-07T23:17:31;100052.88;;;1.54;99.05
5679;BME280;2862;52.560;13.566;2022-12-07T23:27:34;100047.22;;;1.46;99.97
5679;BME280;2862;52.560;13.566;2022-12-07T23:37:38;100039.81;;;1.37;99.21
5679;BME280;2862;52.560;13.566;2022-12-07T23:47:41;100031.84;;;1.22;99.82
5679;BME280;2862;52.560;13.566;2022-12-07T23:57:46;100029.63;;;1.15;100.00
